Time;durP1;ratioP1;P1;durP2;ratioP2;P2;SDS_P1;SDS_P2;PMS_P1;PMS_P2;Temp;Humidity;BMP_temperature;BMP_pressure;BME280_temperature;BME280_humidity;BME280_pressure;Samples;Min_cycle;Max_cycle;Signal;HPM_P1;HPM_P2
2022/05/10 09:35:15;;;;;;;6.33;5.40;;;20.40;67.80;;;;;;5067697;28;20865;-69
2022/05/10 09:37:49;;;;;;;5.23;4.93;;;20.80;66.70;;;;;;5058825;28;20422;-72
2022/05/10 09:40:22;;;;;;;7.73;4.70;;;21.10;65.60;;;;;;5048814;28;20731;-69
2022/05/10 09:42:53;;;;;;;6.03;5.57;;;21.30;64.80;;;;;;5063273;28;20471;-70
2022/05/10 09:45:20;;;;;;;5.70;5.23;;;21.60;64.00;;;;;;5066927;28;20405;-69
2022/05/10 09:48:16;;;;;;;5.93;5.43;;;21.80;63.60;;;;;;5067446;28;20393;-69
2022/05/10 09:50:52;;;;;;;5.60;5.20;;;22.00;63.10;;;;;;5067339;28;20445;-68
2022/05/10 09:53:28;;;;;;;5.13;4.83;;;22.00;62.80;;;;;;5055118;28;20495;-69
2022/05/10 09:56:02;;;;;;;5.60;5.20;;;22.10;62.50;;;;;;5043545;28;20528;-70
2022/05/10 09:58:36;;;;;;;4.90;4.50;;;22.10;62.30;;;;;;5043321;28;20468;-70
2022/05/10 10:01:10;;;;;;;4.87;4.50;;;22.20;62.00;;;;;;5048252;28;20421;-69
2022/05/10 10:03:38;;;;;;;5.20;4.80;;;22.20;61.90;;;;;;5047158;28;20414;-70
2022/05/10 10:06:22;;;;;;;4.87;4.57;;;22.30;61.80;;;;;;5049948;28;20440;-68
2022/05/10 10:08:51;;;;;;;4.40;4.10;;;22.30;61.60;;;;;;5067143;28;20420;-68
2022/05/10 10:11:33;;;;;;;4.77;4.47;;;22.30;61.60;;;;;;5062225;28;20541;-71
2022/05/10 10:14:09;;;;;;;4.83;4.53;;;22.40;61.50;;;;;;5048160;28;20927;-69
2022/05/10 10:16:46;;;;;;;5.03;4.70;;;22.40;61.30;;;;;;5051027;28;20479;-69
2022/05/10 10:19:27;;;;;;;4.30;4.00;;;22.40;61.20;;;;;;5066748;28;20397;-69
2022/05/10 10:22:13;;;;;;;5.00;4.60;;;22.40;61.10;;;;;;5043108;28;20416;-68
2022/05/10 10:25:02;;;;;;;4.73;4.37;;;22.50;61.10;;;;;;5039554;28;20438;-68
2022/05/10 10:27:44;;;;;;;4.90;4.53;;;22.50;60.90;;;;;;5047686;28;20519;-70
2022/05/10 10:30:35;;;;;;;4.47;4.13;;;22.50;60.90;;;;;;5047570;28;20473;-69
2022/05/10 10:33:24;;;;;;;4.33;4.03;;;22.50;60.90;;;;;;5041024;28;20519;-71
2022/05/10 10:36:12;;;;;;;4.70;4.40;;;22.50;60.80;;;;;;5047170;28;20441;-69
2022/05/10 10:38:45;;;;;;;4.57;4.23;;;22.50;60.70;;;;;;5042533;28;20398;-69
2022/05/10 10:41:21;;;;;;;5.77;5.07;;;22.50;60.70;;;;;;5046791;28;20915;-67
2022/05/10 10:44:10;;;;;;;4.30;4.00;;;22.50;60.40;;;;;;5033889;28;20880;-69
2022/05/10 10:46:46;;;;;;;3.87;3.67;;;22.50;60.50;;;;;;5021237;28;20454;-69
2022/05/10 10:49:22;;;;;;;4.77;4.47;;;22.50;60.40;;;;;;5031840;28;20461;-68
2022/05/10 10:51:49;;;;;;;4.40;4.17;;;22.60;60.40;;;;;;5034082;28;21027;-67
2022/05/10 10:54:22;;;;;;;4.77;4.50;;;22.60;60.30;;;;;;5034431;28;20447;-69
2022/05/10 10:57:05;;;;;;;4.63;4.33;;;22.60;60.30;;;;;;5034007;28;20426;-68
2022/05/10 10:59:59;;;;;;;4.40;4.10;;;22.60;60.20;;;;;;5033154;28;20446;-68
2022/05/10 11:02:30;;;;;;;3.97;3.77;;;22.60;60.20;;;;;;5033125;28;20399;-69
2022/05/10 11:05:29;;;;;;;3.70;3.40;;;22.60;60.10;;;;;;5035123;28;20490;-69
2022/05/10 11:08:34;;;;;;;4.00;3.80;;;22.60;60.20;;;;;;5036602;28;20411;-69
2022/05/10 11:11:28;;;;;;;3.57;3.37;;;22.60;60.20;;;;;;5033240;28;20442;-68
2022/05/10 11:14:13;;;;;;;3.70;3.50;;;22.60;60.20;;;;;;5052717;28;20545;-69
2022/05/10 11:17:00;;;;;;;4.20;3.90;;;22.60;60.00;;;;;;5052798;28;20425;-69
2022/05/10 11:20:02;;;;;;;4.40;4.10;;;22.60;60.10;;;;;;5052157;28;20390;-70
2022/05/10 11:22:37;;;;;;;3.87;3.67;;;22.60;59.90;;;;;;5029689;28;20434;-69
2022/05/10 11:25:14;;;;;;;3.90;3.60;;;22.60;59.90;;;;;;5020565;28;20430;-69
2022/05/10 11:27:48;;;;;;;4.27;3.97;;;22.70;59.90;;;;;;5032516;28;20446;-69
2022/05/10 11:30:23;;;;;;;3.90;3.70;;;22.60;59.90;;;;;;5033325;28;20463;-69
2022/05/10 11:33:46;;;;;;;3.80;3.50;;;22.60;59.90;;;;;;5033552;28;20453;-69
2022/05/10 11:36:27;;;;;;;4.23;3.93;;;22.70;59.80;;;;;;5031373;28;20982;-69
2022/05/10 11:39:04;;;;;;;3.53;3.33;;;22.70;59.80;;;;;;5038581;28;20402;-68
2022/05/10 11:42:01;;;;;;;3.73;3.43;;;22.70;59.70;;;;;;5032459;28;20507;-69
2022/05/10 11:44:57;;;;;;;4.00;3.70;;;22.70;59.80;;;;;;5033423;28;20418;-69
2022/05/10 11:47:58;;;;;;;3.80;3.50;;;22.70;59.60;;;;;;5033045;28;20427;-67
2022/05/10 11:50:29;;;;;;;3.87;3.57;;;22.70;59.70;;;;;;5011404;28;21123;-68
2022/05/10 11:53:26;;;;;;;4.00;3.80;;;22.70;59.70;;;;;;5020909;28;20454;-68
2022/05/10 11:55:58;;;;;;;4.03;3.80;;;22.70;59.60;;;;;;5032906;28;20430;-67
2022/05/10 11:58:26;;;;;;;3.97;3.67;;;22.70;59.10;;;;;;5037936;28;20406;-67
2022/05/10 12:01:04;;;;;;;4.20;3.90;;;22.70;59.10;;;;;;5051125;28;20405;-70
2022/05/10 12:03:50;;;;;;;3.63;3.33;;;22.70;59.30;;;;;;5051712;28;20475;-69
2022/05/10 12:06:22;;;;;;;5.03;4.63;;;22.70;59.50;;;;;;5032114;28;20982;-67
2022/05/10 12:08:58;;;;;;;5.17;4.77;;;22.80;60.00;;;;;;5026100;28;20500;-68
2022/05/10 12:11:33;;;;;;;5.00;4.50;;;22.80;59.90;;;;;;5033068;28;20451;-68
2022/05/10 12:22:59;;;;;;;3.97;3.77;;;22.70;59.10;;;;;;5037819;28;20978;-67
2022/05/10 12:25:54;;;;;;;4.90;4.60;;;22.70;59.30;;;;;;5024558;28;20446;-67
2022/05/10 12:28:48;;;;;;;4.60;4.17;;;22.70;59.20;;;;;;5026682;28;20740;-69
2022/05/10 12:31:45;;;;;;;4.40;4.10;;;22.70;59.20;;;;;;5032027;28;20590;-67
2022/05/10 12:34:32;;;;;;;4.10;3.83;;;22.70;59.20;;;;;;5025237;28;20418;-69
2022/05/10 12:37:30;;;;;;;3.90;3.70;;;22.70;59.20;;;;;;5032027;28;20481;-67
2022/05/10 12:40:02;;;;;;;4.43;4.13;;;22.70;59.10;;;;;;5028302;28;20415;-66
2022/05/10 12:42:27;;;;;;;4.20;4.00;;;22.70;59.10;;;;;;5032022;28;20415;-67
2022/05/10 12:45:02;;;;;;;4.50;4.10;;;22.80;59.00;;;;;;5032125;28;20873;-68
2022/05/10 12:48:05;;;;;;;3.97;3.67;;;22.70;58.90;;;;;;5032051;28;20254;-67
2022/05/10 12:50:35;;;;;;;4.10;3.80;;;22.80;59.00;;;;;;5032055;28;20442;-67
2022/05/10 12:53:01;;;;;;;3.87;3.67;;;22.80;58.90;;;;;;5031872;28;20411;-67
2022/05/10 12:55:34;;;;;;;3.60;3.40;;;22.80;59.10;;;;;;5031916;28;20463;-68
2022/05/10 12:58:06;;;;;;;3.67;3.47;;;22.70;59.20;;;;;;5027846;28;20838;-67
2022/05/10 13:00:48;;;;;;;3.67;3.47;;;22.60;59.20;;;;;;5037741;28;20883;-67
2022/05/10 13:03:38;;;;;;;3.53;3.33;;;22.60;59.40;;;;;;5036626;28;20414;-67
2022/05/10 13:06:26;;;;;;;4.10;3.80;;;22.50;59.50;;;;;;5035538;28;20443;-66
2022/05/10 13:08:51;;;;;;;4.53;4.23;;;22.50;59.50;;;;;;5033903;28;20756;-69
2022/05/10 13:11:21;;;;;;;3.93;3.73;;;22.50;59.30;;;;;;5040949;28;20449;-70
2022/05/10 13:13:48;;;;;;;5.50;4.00;;;22.40;59.30;;;;;;5051166;28;20505;-67
2022/05/10 13:16:17;;;;;;;4.03;3.70;;;22.40;59.40;;;;;;5042603;28;20449;-67
2022/05/10 13:18:46;;;;;;;4.10;3.80;;;22.40;59.30;;;;;;5050607;28;20450;-66
2022/05/10 13:21:12;;;;;;;3.50;3.30;;;22.40;59.40;;;;;;5037605;28;20415;-67
2022/05/10 13:23:39;;;;;;;3.70;3.50;;;22.40;59.30;;;;;;5032090;28;20426;-67
2022/05/10 13:26:10;;;;;;;4.00;3.80;;;22.40;58.80;;;;;;5032084;28;20423;-68
2022/05/10 13:28:53;;;;;;;4.50;4.20;;;22.40;58.70;;;;;;5032362;28;20407;-68
2022/05/10 13:31:22;;;;;;;4.40;4.10;;;22.30;59.10;;;;;;5043696;28;20469;-67
2022/05/10 13:33:49;;;;;;;3.67;3.47;;;22.30;59.00;;;;;;5049802;28;20775;-68
2022/05/10 13:36:19;;;;;;;3.97;3.77;;;22.40;58.90;;;;;;5050235;28;20422;-67
2022/05/10 13:38:55;;;;;;;3.80;3.60;;;22.40;59.00;;;;;;5051326;28;20741;-67
2022/05/10 13:41:32;;;;;;;4.43;4.13;;;22.40;59.00;;;;;;5041410;28;20490;-68
2022/05/10 13:44:04;;;;;;;3.57;3.37;;;22.30;59.00;;;;;;5031701;28;20477;-67
2022/05/10 13:48:30;;;;;;;6.00;5.40;;;22.40;60.70;;;;;;5052685;28;20555;-71
2022/05/10 13:51:03;;;;;;;5.97;5.60;;;22.50;57.70;;;;;;5048765;28;20748;-70
2022/05/10 13:53:31;;;;;;;6.57;6.07;;;22.40;57.10;;;;;;5048635;28;20409;-69
2022/05/10 13:55:59;;;;;;;6.93;6.43;;;22.30;56.50;;;;;;5060449;28;21016;-70
2022/05/10 13:58:46;;;;;;;72.23;40.07;;;22.30;56.20;;;;;;5049588;28;20407;-69
2022/05/10 14:01:12;;;;;;;64.23;38.50;;;22.20;56.00;;;;;;5050289;28;20403;-69
2022/05/10 14:03:38;;;;;;;42.40;28.73;;;22.20;55.60;;;;;;5061767;28;20420;-68
2022/05/10 14:06:12;;;;;;;36.03;24.70;;;22.20;55.50;;;;;;5069272;28;20472;-69
2022/05/10 14:08:45;;;;;;;29.83;19.17;;;22.20;55.30;;;;;;5069010;28;20402;-69
2022/05/10 14:11:19;;;;;;;22.93;16.37;;;22.20;55.20;;;;;;5065773;28;20415;-71
2022/05/10 14:13:54;;;;;;;19.93;15.40;;;22.10;55.60;;;;;;5049115;28;20399;-69
2022/05/10 14:16:30;;;;;;;15.90;14.03;;;22.10;55.60;;;;;;5049883;28;20471;-68
2022/05/10 14:18:57;;;;;;;20.60;15.27;;;22.10;55.40;;;;;;5050074;28;20468;-69
2022/05/10 14:21:26;;;;;;;19.80;14.80;;;22.10;55.40;;;;;;5049999;28;20465;-71
2022/05/10 14:23:57;;;;;;;22.70;14.83;;;22.10;55.50;;;;;;5049991;28;20430;-70
2022/05/10 14:26:41;;;;;;;19.20;15.00;;;22.10;55.70;;;;;;5049711;28;20454;-70
2022/05/10 14:29:34;;;;;;;17.50;14.43;;;22.10;55.90;;;;;;5060374;28;20487;-68
2022/05/10 14:32:07;;;;;;;17.87;14.00;;;22.00;56.00;;;;;;5059391;28;20418;-69
2022/05/10 14:34:48;;;;;;;16.20;14.07;;;22.00;56.20;;;;;;5049518;28;20405;-68
2022/05/10 14:37:29;;;;;;;19.27;14.70;;;22.00;56.40;;;;;;5055819;28;20529;-69
2022/05/10 14:39:56;;;;;;;20.70;14.17;;;22.00;56.70;;;;;;5071972;28;20825;-70
2022/05/10 14:42:54;;;;;;;21.40;14.17;;;22.00;56.80;;;;;;5080606;28;20510;-70
2022/05/10 14:45:39;;;;;;;14.53;13.00;;;22.00;56.90;;;;;;5083490;28;20409;-69
2022/05/10 14:48:37;;;;;;;18.03;13.60;;;22.00;57.00;;;;;;5078563;28;20577;-69
2022/05/10 14:51:03;;;;;;;17.33;13.07;;;22.00;57.00;;;;;;5088981;28;20418;-68
2022/05/10 14:53:50;;;;;;;16.30;13.07;;;22.00;57.10;;;;;;5089653;28;20419;-70
2022/05/10 14:56:19;;;;;;;16.00;13.00;;;22.00;57.30;;;;;;5090448;28;20443;-71
2022/05/10 14:58:48;;;;;;;15.20;12.37;;;22.00;57.40;;;;;;5083114;28;20393;-71
2022/05/10 15:01:21;;;;;;;17.27;12.97;;;22.00;57.50;;;;;;5077192;28;20707;-71
2022/05/10 15:04:09;;;;;;;15.80;12.83;;;21.90;57.60;;;;;;5075955;28;20906;-68
2022/05/10 15:06:37;;;;;;;14.20;12.67;;;21.90;57.60;;;;;;5076709;28;20927;-70
2022/05/10 15:09:04;;;;;;;16.30;13.27;;;21.90;57.70;;;;;;5075887;28;20784;-69
2022/05/10 15:11:30;;;;;;;17.73;13.57;;;21.90;57.70;;;;;;5076748;28;20405;-69
2022/05/10 15:13:56;;;;;;;14.93;12.00;;;21.90;57.90;;;;;;5076760;28;20406;-68
2022/05/10 15:16:22;;;;;;;15.77;12.17;;;21.90;57.90;;;;;;5076893;28;20807;-69
2022/05/10 15:19:00;;;;;;;13.90;12.10;;;21.90;58.00;;;;;;5071922;28;20198;-70
2022/05/10 15:21:36;;;;;;;13.90;12.10;;;21.80;58.00;;;;;;5071531;28;20429;-69
2022/05/10 15:24:05;;;;;;;16.03;12.50;;;21.80;58.10;;;;;;5057907;28;20422;-70
2022/05/10 15:26:45;;;;;;;15.97;12.00;;;21.80;58.10;;;;;;5065423;28;20513;-70
2022/05/10 15:29:16;;;;;;;14.00;12.10;;;21.80;58.10;;;;;;5076510;28;20484;-69
2022/05/10 15:31:44;;;;;;;14.03;11.37;;;21.80;58.20;;;;;;5076623;28;20412;-70
2022/05/10 15:36:54;;;;;;;13.90;11.23;;;21.80;58.20;;;;;;5076475;28;20432;-70
2022/05/10 15:39:20;;;;;;;12.37;11.00;;;21.80;58.30;;;;;;5076219;28;20406;-68
2022/05/10 15:41:45;;;;;;;12.80;11.50;;;21.80;58.30;;;;;;5075280;28;20171;-69
2022/05/10 15:44:13;;;;;;;13.80;12.00;;;21.80;58.30;;;;;;5076124;28;20485;-71
2022/05/10 15:46:42;;;;;;;14.07;11.57;;;21.80;58.40;;;;;;5075765;28;20272;-70
2022/05/10 15:49:09;;;;;;;13.83;11.10;;;21.80;58.40;;;;;;5075093;28;20754;-69
2022/05/10 15:51:35;;;;;;;12.30;10.70;;;21.80;58.40;;;;;;5076276;28;20405;-70
2022/05/10 15:54:00;;;;;;;14.53;12.30;;;21.80;58.40;;;;;;5075942;28;20413;-69
2022/05/10 15:56:26;;;;;;;13.77;12.37;;;21.80;58.50;;;;;;5075824;28;20236;-68
2022/05/10 15:58:52;;;;;;;13.47;11.40;;;21.80;58.50;;;;;;5075908;28;20182;-69
2022/05/10 16:01:18;;;;;;;14.20;11.30;;;21.70;58.50;;;;;;5075803;28;20181;-68
2022/05/10 16:03:44;;;;;;;11.60;10.50;;;21.70;58.60;;;;;;5074797;28;20483;-69
2022/05/10 16:06:10;;;;;;;12.40;10.63;;;21.70;58.60;;;;;;5075837;28;20190;-70
2022/05/10 16:08:36;;;;;;;11.00;9.90;;;21.70;58.60;;;;;;5074746;28;20406;-68
2022/05/10 16:11:03;;;;;;;11.67;10.50;;;21.70;58.60;;;;;;5074663;28;20504;-70
2022/05/10 16:13:29;;;;;;;11.53;10.00;;;21.70;58.60;;;;;;5075835;28;20484;-69
2022/05/10 16:15:55;;;;;;;11.93;10.53;;;21.70;58.60;;;;;;5075674;28;20479;-69
2022/05/10 16:18:20;;;;;;;11.87;10.50;;;21.70;58.60;;;;;;5075457;28;20409;-69
2022/05/10 16:20:48;;;;;;;12.70;11.30;;;21.70;58.70;;;;;;5075397;28;20186;-68
2022/05/10 16:23:14;;;;;;;11.57;10.47;;;21.70;58.70;;;;;;5075429;28;20178;-70
2022/05/10 16:25:40;;;;;;;13.73;11.67;;;21.70;58.70;;;;;;5075313;28;20509;-69
2022/05/10 16:30:50;;;;;;;11.73;10.53;;;21.70;58.80;;;;;;5075292;28;20178;-70
2022/05/10 16:33:15;;;;;;;11.23;9.97;;;21.70;58.90;;;;;;5074239;28;20418;-69
2022/05/10 16:35:41;;;;;;;12.20;10.90;;;21.70;58.90;;;;;;5075057;28;20282;-69
2022/05/10 16:38:09;;;;;;;12.00;10.80;;;21.70;58.80;;;;;;5075414;28;20200;-69
2022/05/10 16:40:36;;;;;;;13.37;11.00;;;21.70;58.80;;;;;;5075035;28;20413;-70
2022/05/10 16:43:02;;;;;;;12.53;11.00;;;21.60;59.00;;;;;;5062238;28;20414;-68
2022/05/10 16:45:28;;;;;;;11.17;10.17;;;21.70;59.00;;;;;;5053541;28;20430;-69
2022/05/10 16:47:55;;;;;;;12.30;10.13;;;21.60;59.00;;;;;;5057265;28;20476;-69
2022/05/10 16:50:21;;;;;;;12.43;11.23;;;21.70;59.00;;;;;;5054064;28;20429;-70
2022/05/10 16:52:47;;;;;;;12.37;10.87;;;21.60;59.00;;;;;;5054090;28;20402;-69
2022/05/10 16:55:16;;;;;;;10.97;9.87;;;21.60;59.00;;;;;;5042806;28;20530;-68
2022/05/10 16:57:42;;;;;;;11.37;10.10;;;21.60;59.00;;;;;;5033180;28;20451;-70
2022/05/10 17:00:15;;;;;;;11.43;10.33;;;21.60;59.00;;;;;;5054279;28;20470;-68
2022/05/10 17:02:42;;;;;;;11.67;10.47;;;21.70;59.00;;;;;;5054725;28;20475;-71
2022/05/10 17:05:10;;;;;;;13.53;9.60;;;21.60;59.10;;;;;;5054683;28;20503;-69
2022/05/10 17:07:39;;;;;;;10.60;9.33;;;21.60;59.10;;;;;;5054417;28;20457;-70
2022/05/10 17:10:09;;;;;;;11.90;10.77;;;21.60;59.10;;;;;;5054577;28;20460;-68
2022/05/10 17:12:35;;;;;;;10.77;9.30;;;21.60;59.10;;;;;;5054647;28;20474;-69
2022/05/10 17:15:01;;;;;;;11.57;10.37;;;21.60;59.20;;;;;;5054433;28;20410;-69
2022/05/10 17:17:26;;;;;;;11.50;10.23;;;21.60;59.20;;;;;;5054406;28;20187;-70
2022/05/10 17:19:52;;;;;;;10.93;9.83;;;21.60;59.20;;;;;;5054402;28;20164;-69
2022/05/10 17:22:18;;;;;;;10.63;9.60;;;21.60;59.20;;;;;;5054132;28;20267;-69
2022/05/10 17:24:44;;;;;;;11.10;10.00;;;21.60;59.20;;;;;;5054331;28;20168;-70
2022/05/10 17:27:12;;;;;;;11.07;10.07;;;21.60;59.20;;;;;;5054152;28;20275;-69
2022/05/10 17:29:38;;;;;;;10.87;9.83;;;21.60;59.20;;;;;;5059747;28;20172;-69
2022/05/10 17:32:05;;;;;;;11.10;10.00;;;21.60;59.30;;;;;;5068334;28;20428;-68
2022/05/10 17:34:30;;;;;;;10.77;9.57;;;21.60;59.30;;;;;;5074486;28;20190;-69
2022/05/10 17:36:56;;;;;;;10.50;9.50;;;21.50;59.30;;;;;;5074184;28;20782;-68
2022/05/10 17:39:22;;;;;;;11.00;9.90;;;21.50;59.30;;;;;;5074189;28;20179;-69
2022/05/10 17:41:49;;;;;;;11.30;10.17;;;21.50;59.30;;;;;;5074246;28;20163;-69
2022/05/10 17:44:14;;;;;;;10.00;9.00;;;21.60;59.30;;;;;;5070752;28;20224;-69
2022/05/10 17:46:40;;;;;;;10.53;9.20;;;21.50;59.30;;;;;;5058625;28;20951;-70
2022/05/10 17:49:07;;;;;;;10.27;9.30;;;21.50;59.30;;;;;;5074511;28;20221;-70
2022/05/10 17:51:36;;;;;;;9.80;8.80;;;21.50;59.30;;;;;;5073158;28;20167;-70
2022/05/10 17:54:02;;;;;;;9.83;8.83;;;21.50;59.30;;;;;;5074006;28;20902;-70
2022/05/10 17:56:29;;;;;;;9.70;8.80;;;21.50;59.30;;;;;;5073984;28;20512;-70
2022/05/10 17:58:55;;;;;;;11.03;10.00;;;21.50;59.40;;;;;;5074039;28;21138;-68
2022/05/10 18:01:24;;;;;;;9.80;8.87;;;21.50;59.40;;;;;;5074007;28;20406;-69
2022/05/10 18:03:51;;;;;;;9.77;8.77;;;21.50;59.40;;;;;;5074280;28;20476;-69
2022/05/10 18:06:17;;;;;;;11.90;9.90;;;21.50;59.40;;;;;;5073818;28;20879;-70
2022/05/10 18:08:43;;;;;;;10.03;9.03;;;21.50;59.40;;;;;;5073899;28;20470;-70
2022/05/10 18:11:12;;;;;;;10.17;9.10;;;21.50;59.40;;;;;;5072917;28;20179;-68
2022/05/10 18:13:39;;;;;;;10.30;9.40;;;21.50;59.40;;;;;;5073859;28;20429;-71
2022/05/10 18:16:06;;;;;;;10.50;9.60;;;21.50;59.40;;;;;;5065222;28;20460;-70
2022/05/10 18:18:32;;;;;;;10.07;9.07;;;21.50;59.40;;;;;;5065410;28;20890;-69
2022/05/10 18:20:58;;;;;;;11.53;10.43;;;21.50;59.40;;;;;;5061536;28;20414;-69
2022/05/10 18:23:24;;;;;;;9.47;8.67;;;21.50;59.40;;;;;;5064761;28;20487;-69
2022/05/10 18:25:54;;;;;;;9.90;9.10;;;21.50;59.40;;;;;;5073668;28;20457;-70
2022/05/10 18:28:20;;;;;;;9.53;8.73;;;21.50;59.40;;;;;;5073733;28;20205;-70
2022/05/10 18:30:47;;;;;;;10.00;9.17;;;21.50;59.40;;;;;;5073690;28;20417;-69
2022/05/10 18:33:13;;;;;;;9.80;8.97;;;21.50;59.50;;;;;;5074122;28;20210;-69
2022/05/10 18:35:41;;;;;;;9.97;9.07;;;21.50;59.50;;;;;;5077705;28;20457;-69
2022/05/10 18:38:06;;;;;;;9.40;8.50;;;21.40;59.50;;;;;;5076446;28;20256;-69
2022/05/10 18:40:32;;;;;;;9.83;8.67;;;21.40;59.50;;;;;;5077350;28;20429;-69
2022/05/10 18:42:58;;;;;;;9.83;8.93;;;21.50;59.50;;;;;;5072409;28;20183;-71
2022/05/10 18:45:25;;;;;;;9.90;9.00;;;21.40;59.50;;;;;;5065820;28;20669;-71
2022/05/10 18:47:53;;;;;;;9.67;8.87;;;21.40;59.50;;;;;;5058112;28;20574;-70
2022/05/10 18:50:19;;;;;;;9.77;8.83;;;21.40;59.70;;;;;;5056143;28;20418;-70
2022/05/10 18:52:45;;;;;;;9.90;9.00;;;21.40;59.90;;;;;;5051886;28;20418;-69
2022/05/10 18:55:11;;;;;;;10.33;9.33;;;21.40;59.80;;;;;;5044942;28;20483;-69
2022/05/10 18:57:37;;;;;;;10.20;9.27;;;21.50;59.80;;;;;;5044479;28;20302;-69
2022/05/10 19:00:04;;;;;;;10.10;8.90;;;21.40;59.80;;;;;;5045389;28;20208;-71
2022/05/10 19:02:30;;;;;;;10.00;9.00;;;21.40;59.80;;;;;;5039808;28;20703;-70
2022/05/10 19:04:56;;;;;;;8.77;8.07;;;21.40;59.80;;;;;;5038734;28;20816;-68
2022/05/10 19:07:21;;;;;;;9.73;8.93;;;21.40;59.80;;;;;;5047486;28;20204;-69
2022/05/10 19:09:47;;;;;;;8.70;8.00;;;21.40;59.80;;;;;;5039197;28;20172;-69
2022/05/10 19:12:13;;;;;;;9.60;8.80;;;21.40;59.80;;;;;;5039645;28;20192;-69
2022/05/10 19:14:39;;;;;;;9.10;8.20;;;21.40;59.80;;;;;;5038894;28;20230;-69
2022/05/10 19:17:04;;;;;;;10.07;9.17;;;21.40;59.80;;;;;;5055633;28;20183;-69
2022/05/10 19:19:31;;;;;;;9.63;8.73;;;21.40;59.80;;;;;;5055098;28;20849;-71
2022/05/10 19:21:57;;;;;;;9.03;8.23;;;21.40;59.80;;;;;;5055544;28;20184;-70
2022/05/10 19:24:23;;;;;;;8.40;7.70;;;21.40;59.80;;;;;;5055692;28;20414;-71
2022/05/10 19:26:48;;;;;;;9.20;8.37;;;21.40;59.80;;;;;;5038550;28;20546;-70
2022/05/10 19:29:14;;;;;;;9.20;8.30;;;21.40;59.80;;;;;;5035694;28;20782;-70
2022/05/10 19:31:40;;;;;;;9.20;8.30;;;21.40;59.80;;;;;;5035882;28;20169;-70
2022/05/10 19:34:08;;;;;;;10.10;8.57;;;21.40;59.80;;;;;;5034716;28;20259;-70
2022/05/10 19:36:35;;;;;;;8.80;8.00;;;21.40;59.80;;;;;;5035650;28;20569;-68
2022/05/10 19:39:02;;;;;;;9.30;8.40;;;21.40;59.80;;;;;;5034451;28;20889;-70
2022/05/10 19:41:34;;;;;;;9.30;8.50;;;21.40;59.80;;;;;;5035640;28;20553;-69
2022/05/10 19:44:00;;;;;;;8.03;7.43;;;21.40;59.80;;;;;;5035696;28;20398;-71
2022/05/10 19:46:26;;;;;;;9.13;8.43;;;21.30;59.80;;;;;;5034112;28;20498;-71
2022/05/10 19:48:53;;;;;;;8.67;7.97;;;21.40;59.80;;;;;;5035401;28;20388;-69
2022/05/10 19:51:18;;;;;;;8.90;8.17;;;21.40;59.80;;;;;;5045000;28;20168;-69
2022/05/10 19:53:45;;;;;;;8.63;8.03;;;21.30;59.80;;;;;;5060973;28;20451;-69
2022/05/10 19:56:14;;;;;;;8.40;7.60;;;21.30;59.80;;;;;;5058509;28;20253;-69
2022/05/10 19:58:40;;;;;;;8.03;7.40;;;21.30;59.80;;;;;;5058985;28;20425;-68
2022/05/10 20:05:21;;;;;;;8.87;8.17;;;21.30;59.80;;;;;;5070553;28;20411;-69
2022/05/10 20:06:39;;;;;;;8.77;8.07;;;21.30;59.80;;;;;;5045547;28;20491;-70
2022/05/10 20:09:05;;;;;;;9.50;8.60;;;21.30;59.80;;;;;;5057058;28;20406;-69
2022/05/10 20:11:31;;;;;;;9.27;8.47;;;21.30;59.80;;;;;;5072282;28;20186;-69
2022/05/10 20:13:56;;;;;;;9.03;8.30;;;21.30;59.90;;;;;;5074816;28;20516;-70
2022/05/10 20:16:23;;;;;;;8.90;8.20;;;21.30;59.90;;;;;;5074777;28;20186;-69
2022/05/10 20:18:49;;;;;;;8.57;7.87;;;21.30;59.90;;;;;;5073786;28;20192;-68
2022/05/10 20:21:16;;;;;;;8.70;8.00;;;21.30;59.80;;;;;;5073753;28;20426;-69
2022/05/10 20:23:42;;;;;;;8.43;7.70;;;21.30;59.90;;;;;;5074621;28;20428;-68
2022/05/10 20:26:08;;;;;;;8.33;7.70;;;21.30;59.90;;;;;;5074483;28;20417;-70
2022/05/10 20:28:33;;;;;;;7.93;7.33;;;21.30;59.90;;;;;;5062557;28;20529;-71
2022/05/10 20:30:59;;;;;;;8.83;7.93;;;21.30;59.90;;;;;;5055295;28;20510;-70
2022/05/10 20:33:25;;;;;;;7.90;7.30;;;21.30;59.80;;;;;;5054248;28;20736;-68
2022/05/10 20:35:50;;;;;;;8.50;7.80;;;21.30;59.90;;;;;;5055100;28;20188;-69
2022/05/10 20:38:16;;;;;;;7.97;7.30;;;21.30;59.80;;;;;;5055121;28;20163;-68
2022/05/10 20:40:43;;;;;;;8.73;7.90;;;21.30;59.80;;;;;;5055146;28;20200;-69
2022/05/10 20:43:11;;;;;;;9.73;8.83;;;21.30;59.80;;;;;;5055067;28;20183;-69
2022/05/10 20:45:38;;;;;;;8.10;7.40;;;21.30;59.90;;;;;;5054865;28;20425;-69
2022/05/10 20:48:05;;;;;;;8.30;7.70;;;21.30;59.90;;;;;;5054744;28;20477;-68
2022/05/10 20:50:32;;;;;;;7.67;7.07;;;21.30;59.80;;;;;;5054847;28;20419;-68
2022/05/10 20:52:59;;;;;;;8.57;7.77;;;21.30;59.80;;;;;;5054872;28;20410;-69
2022/05/10 20:55:26;;;;;;;8.63;7.93;;;21.30;59.90;;;;;;5054771;28;20398;-69
2022/05/10 20:57:52;;;;;;;8.33;7.63;;;21.30;59.90;;;;;;5054227;28;20429;-70
2022/05/10 21:00:19;;;;;;;8.20;7.50;;;21.30;59.90;;;;;;5066189;28;20413;-70
2022/05/10 21:02:48;;;;;;;8.80;7.90;;;21.30;59.90;;;;;;5065753;28;20175;-68
2022/05/10 21:05:14;;;;;;;8.83;8.13;;;21.30;59.90;;;;;;5073644;28;20417;-70
2022/05/10 21:10:25;;;;;;;7.80;7.20;;;21.30;59.90;;;;;;5074877;28;20392;-69
2022/05/10 21:12:51;;;;;;;8.33;7.63;;;21.30;59.90;;;;;;5073507;28;20872;-69
2022/05/10 21:15:17;;;;;;;7.70;7.13;;;21.30;59.90;;;;;;5074479;28;20232;-69
2022/05/10 21:17:43;;;;;;;8.40;7.70;;;21.30;59.90;;;;;;5073398;28;20214;-70
2022/05/10 21:20:10;;;;;;;7.73;7.13;;;21.20;59.90;;;;;;5074697;28;20883;-69
2022/05/10 21:22:36;;;;;;;8.53;7.73;;;21.30;59.90;;;;;;5074374;28;20175;-70
2022/05/10 21:25:02;;;;;;;7.03;6.43;;;21.30;59.90;;;;;;5074386;28;20513;-71
2022/05/10 21:27:27;;;;;;;7.70;7.00;;;21.30;59.90;;;;;;5074195;28;20553;-70
2022/05/10 21:32:51;;;;;;;7.37;6.83;;;21.30;59.90;;;;;;5074567;28;20162;-70
2022/05/10 21:35:22;;;;;;;8.27;7.57;;;21.20;59.90;;;;;;5074565;28;20926;-70
2022/05/10 21:37:48;;;;;;;7.50;7.00;;;21.20;59.90;;;;;;5074300;28;20946;-69
2022/05/10 21:40:14;;;;;;;7.70;7.10;;;21.20;59.90;;;;;;5074189;28;20437;-70
2022/05/10 21:42:40;;;;;;;8.50;7.80;;;21.20;59.90;;;;;;5074451;28;20747;-70
2022/05/10 21:45:09;;;;;;;7.53;6.93;;;21.20;59.90;;;;;;5074284;28;20788;-69
2022/05/10 21:47:35;;;;;;;7.37;6.77;;;21.20;59.90;;;;;;5072837;28;20480;-70
2022/05/10 21:50:01;;;;;;;8.10;7.40;;;21.20;59.90;;;;;;5074399;28;20788;-69
2022/05/10 21:52:27;;;;;;;8.40;7.60;;;21.20;59.90;;;;;;5074079;28;20401;-69
2022/05/10 21:54:52;;;;;;;7.47;6.87;;;21.20;59.90;;;;;;5074151;28;20171;-69
2022/05/10 21:57:18;;;;;;;8.40;7.67;;;21.20;59.90;;;;;;5074073;28;20191;-70
2022/05/10 21:59:43;;;;;;;8.40;7.73;;;21.20;59.90;;;;;;5074004;28;20174;-70
2022/05/10 22:02:09;;;;;;;7.70;7.00;;;21.20;59.90;;;;;;5074063;28;20608;-70
2022/05/10 22:04:35;;;;;;;7.57;6.93;;;21.20;59.90;;;;;;5073949;28;20616;-69
2022/05/10 22:07:00;;;;;;;8.20;7.53;;;21.20;59.90;;;;;;5073830;28;20590;-69
2022/05/10 22:09:27;;;;;;;8.00;7.40;;;21.20;59.90;;;;;;5076414;28;20561;-70
2022/05/10 22:11:53;;;;;;;7.50;6.90;;;21.20;59.90;;;;;;5077969;28;20163;-69
2022/05/10 22:14:18;;;;;;;7.67;7.07;;;21.20;59.90;;;;;;5077925;28;20406;-70
2022/05/10 22:16:44;;;;;;;8.40;7.67;;;21.20;59.90;;;;;;5077763;28;20424;-70
2022/05/10 22:19:10;;;;;;;7.20;6.60;;;21.20;60.00;;;;;;5077812;28;20179;-70
2022/05/10 22:21:36;;;;;;;8.07;7.37;;;21.20;59.90;;;;;;5077770;28;20167;-69
2022/05/10 22:24:04;;;;;;;7.70;7.10;;;21.20;59.90;;;;;;5077718;28;20905;-70
2022/05/10 22:26:31;;;;;;;7.73;7.13;;;21.20;60.00;;;;;;5077504;28;20436;-70
2022/05/10 22:28:57;;;;;;;7.27;6.77;;;21.20;60.00;;;;;;5077584;28;20406;-70
2022/05/10 22:31:24;;;;;;;7.90;7.20;;;21.20;60.00;;;;;;5077569;28;20424;-69
2022/05/10 22:33:50;;;;;;;7.40;6.80;;;21.20;60.00;;;;;;5077571;28;20160;-69
2022/05/10 22:36:16;;;;;;;7.67;7.07;;;21.20;59.90;;;;;;5077380;28;20421;-70
2022/05/10 22:38:43;;;;;;;7.43;6.93;;;21.20;59.90;;;;;;5076442;28;20409;-70
2022/05/10 22:41:12;;;;;;;7.33;6.73;;;21.20;60.00;;;;;;5077356;28;20409;-69
2022/05/10 22:43:38;;;;;;;8.13;7.53;;;21.20;59.90;;;;;;5077317;28;20413;-71
2022/05/10 22:46:09;;;;;;;7.50;6.90;;;21.20;60.00;;;;;;5076086;28;20933;-69
2022/05/10 22:48:36;;;;;;;7.73;7.13;;;21.20;60.00;;;;;;5077180;28;20919;-68
2022/05/10 22:51:02;;;;;;;8.30;7.60;;;21.20;60.00;;;;;;5077145;28;20430;-70
2022/05/10 22:53:27;;;;;;;7.97;7.27;;;21.20;60.00;;;;;;5077089;28;20397;-70
2022/05/10 22:55:53;;;;;;;7.37;6.87;;;21.20;60.00;;;;;;5077069;28;20584;-68
2022/05/10 22:58:19;;;;;;;7.97;7.30;;;21.20;60.00;;;;;;5076138;28;20167;-69
2022/05/10 23:00:45;;;;;;;7.50;7.00;;;21.20;59.90;;;;;;5077031;28;20631;-70